createdAt,value
2022-10-08T00:01:22.720Z,12.09
2022-10-08T00:03:53.310Z,12.01
2022-10-08T00:06:23.044Z,12.01
2022-10-08T00:08:52.672Z,12.13
2022-10-08T00:11:22.820Z,12.10
2022-10-08T00:13:51.670Z,12.17
2022-10-08T00:16:22.692Z,12.08
2022-10-08T00:18:52.265Z,12.07
2022-10-08T00:21:21.519Z,12.11
2022-10-08T00:23:50.539Z,12.05
2022-10-08T00:26:20.892Z,12.04
2022-10-08T00:28:48.654Z,12.03
2022-10-08T00:31:19.853Z,11.97
2022-10-08T00:33:51.682Z,12.07
2022-10-08T00:36:19.460Z,12.03
2022-10-08T00:38:47.088Z,11.96
2022-10-08T00:41:20.743Z,11.94
2022-10-08T00:43:49.603Z,11.93
2022-10-08T00:46:26.415Z,11.92
2022-10-08T00:49:06.201Z,11.96
2022-10-08T00:51:34.951Z,11.99
2022-10-08T00:54:03.036Z,11.97
2022-10-08T00:56:33.637Z,11.95
2022-10-08T00:59:02.140Z,11.96
2022-10-08T01:01:30.482Z,11.92
2022-10-08T01:04:07.568Z,11.88
2022-10-08T01:06:43.041Z,11.86
2022-10-08T01:09:18.674Z,11.79
2022-10-08T01:11:50.589Z,11.78
2022-10-08T01:14:26.339Z,11.63
2022-10-08T01:17:00.284Z,11.54
2022-10-08T01:19:43.581Z,11.40
2022-10-08T01:22:21.567Z,11.32
2022-10-08T01:25:07.825Z,11.29
2022-10-08T01:27:42.285Z,11.12
2022-10-08T01:30:15.548Z,11.06
2022-10-08T01:32:51.878Z,10.98
2022-10-08T01:35:24.006Z,10.98
2022-10-08T01:37:56.086Z,10.93
2022-10-08T01:40:27.261Z,10.91
2022-10-08T01:42:57.570Z,10.99
2022-10-08T01:45:28.796Z,10.97
2022-10-08T01:47:57.241Z,10.85
2022-10-08T01:50:28.156Z,10.94
2022-10-08T01:52:58.907Z,10.87
2022-10-08T01:55:29.286Z,10.93
2022-10-08T01:58:02.798Z,10.85
2022-10-08T02:00:32.110Z,10.91
2022-10-08T02:02:59.684Z,10.81
2022-10-08T02:05:29.502Z,10.75
2022-10-08T02:07:57.088Z,10.74
2022-10-08T02:10:25.713Z,10.70
2022-10-08T02:12:53.672Z,10.66
2022-10-08T02:15:24.798Z,10.54
2022-10-08T02:17:58.879Z,10.47
2022-10-08T02:20:32.413Z,10.40
2022-10-08T02:23:05.000Z,10.56
2022-10-08T02:25:36.984Z,10.52
2022-10-08T02:28:09.185Z,10.40
2022-10-08T02:30:47.389Z,10.34
2022-10-08T02:33:17.895Z,10.34
2022-10-08T02:35:48.623Z,10.33
2022-10-08T02:38:19.830Z,10.27
2022-10-08T02:40:51.372Z,10.26
2022-10-08T02:43:22.402Z,10.22
2022-10-08T02:45:55.307Z,10.26
2022-10-08T02:48:28.339Z,10.21
2022-10-08T02:50:57.551Z,10.20
2022-10-08T02:53:26.517Z,10.18
2022-10-08T02:56:02.444Z,10.19
2022-10-08T02:58:30.214Z,10.15
2022-10-08T03:01:03.935Z,10.20
2022-10-08T03:03:36.588Z,10.24
2022-10-08T03:06:06.198Z,10.22
2022-10-08T03:08:35.900Z,10.14
2022-10-08T03:11:03.832Z,10.13
2022-10-08T03:13:31.794Z,10.11
2022-10-08T03:16:00.878Z,10.02
2022-10-08T03:18:28.532Z,10.05
2022-10-08T03:20:56.220Z,10.07
2022-10-08T03:23:25.019Z,10.09
2022-10-08T03:25:52.616Z,10.04
2022-10-08T03:28:20.198Z,10.05
2022-10-08T03:30:48.156Z,9.99
2022-10-08T03:33:17.118Z,10.05
2022-10-08T03:35:46.073Z,10.04
2022-10-08T03:38:15.384Z,10.05
2022-10-08T03:40:43.011Z,10.04
2022-10-08T03:43:10.640Z,10.05
2022-10-08T03:45:38.226Z,10.09
2022-10-08T03:48:05.812Z,10.04
2022-10-08T03:50:35.396Z,9.97
2022-10-08T03:53:02.950Z,10.00
2022-10-08T03:55:30.488Z,10.04
2022-10-08T03:57:58.112Z,10.14
2022-10-08T04:00:25.807Z,10.06
2022-10-08T04:02:53.417Z,10.13
2022-10-08T04:05:21.026Z,10.12
2022-10-08T04:07:49.994Z,9.99
2022-10-08T04:10:17.597Z,9.99
2022-10-08T04:12:45.518Z,10.02
2022-10-08T04:15:13.301Z,9.96
2022-10-08T04:17:41.704Z,9.95
2022-10-08T04:20:10.180Z,9.94
2022-10-08T04:22:37.784Z,9.96
2022-10-08T04:25:06.923Z,9.93
2022-10-08T04:27:34.451Z,9.92
2022-10-08T04:30:02.032Z,9.99
2022-10-08T04:32:29.610Z,9.88
2022-10-08T04:34:57.309Z,9.91
2022-10-08T04:37:24.911Z,9.82
2022-10-08T04:39:52.547Z,9.79
2022-10-08T04:42:21.505Z,9.69
2022-10-08T04:44:49.097Z,9.70
2022-10-08T04:47:16.719Z,9.73
2022-10-08T04:49:44.619Z,9.69
2022-10-08T04:52:13.713Z,9.65
2022-10-08T04:54:41.304Z,9.56
2022-10-08T04:57:08.945Z,9.66
2022-10-08T04:59:49.202Z,9.63
2022-10-08T05:02:25.546Z,9.58
2022-10-08T05:04:53.149Z,9.53
2022-10-08T05:07:20.776Z,9.57
2022-10-08T05:09:48.441Z,9.65
2022-10-08T05:12:15.999Z,9.51
2022-10-08T05:14:44.868Z,9.50
2022-10-08T05:17:12.523Z,9.48
2022-10-08T05:19:40.095Z,9.41
2022-10-08T05:22:07.700Z,9.41
2022-10-08T05:24:35.407Z,9.40
2022-10-08T05:27:02.963Z,9.44
2022-10-08T05:29:30.590Z,9.33
2022-10-08T05:31:59.605Z,9.36
2022-10-08T05:34:27.191Z,9.27
2022-10-08T05:36:55.016Z,9.25
2022-10-08T05:39:22.669Z,9.16
2022-10-08T05:41:50.469Z,9.12
2022-10-08T05:44:18.027Z,9.16
2022-10-08T05:46:45.734Z,9.17
2022-10-08T05:49:19.443Z,9.12
2022-10-08T05:51:47.227Z,9.18
2022-10-08T05:54:14.797Z,9.15
2022-10-08T05:56:42.395Z,9.07
2022-10-08T05:59:14.552Z,9.13
2022-10-08T06:01:42.126Z,9.16
2022-10-08T06:04:11.631Z,9.21
2022-10-08T06:06:42.165Z,9.14
2022-10-08T06:09:12.170Z,9.13
2022-10-08T06:11:40.050Z,9.08
2022-10-08T06:14:08.781Z,9.00
2022-10-08T06:16:36.825Z,9.08
2022-10-08T06:19:06.123Z,9.13
2022-10-08T06:21:37.459Z,9.12
2022-10-08T06:24:08.659Z,9.18
2022-10-08T06:26:38.107Z,9.18
2022-10-08T06:29:06.564Z,9.25
2022-10-08T06:31:34.593Z,9.28
2022-10-08T06:34:04.225Z,9.33
2022-10-08T06:36:32.514Z,9.36
2022-10-08T06:39:01.711Z,9.48
2022-10-08T06:41:33.254Z,9.49
2022-10-08T06:44:00.811Z,9.55
2022-10-08T06:46:31.279Z,9.63
2022-10-08T06:48:59.228Z,9.76
2022-10-08T06:51:27.779Z,9.79
2022-10-08T06:54:01.465Z,9.74
2022-10-08T06:56:35.985Z,9.96
2022-10-08T06:59:03.850Z,9.99
2022-10-08T07:01:33.920Z,10.11
2022-10-08T07:04:02.416Z,10.19
2022-10-08T07:06:30.012Z,10.30
2022-10-08T07:08:59.284Z,10.30
2022-10-08T07:11:27.486Z,10.23
2022-10-08T07:13:57.315Z,10.28
2022-10-08T07:16:26.497Z,10.23
2022-10-08T07:18:56.048Z,10.23
2022-10-08T07:21:24.107Z,10.40
2022-10-08T07:23:53.005Z,10.41
2022-10-08T07:26:22.322Z,10.58
2022-10-08T07:28:51.825Z,10.70
2022-10-08T07:31:22.493Z,10.85
2022-10-08T07:33:50.424Z,10.98
2022-10-08T07:36:19.755Z,11.03
2022-10-08T07:38:48.295Z,11.26
2022-10-08T07:41:16.124Z,11.30
2022-10-08T07:43:43.947Z,11.43
2022-10-08T07:46:12.431Z,11.63
2022-10-08T07:48:42.013Z,11.66
2022-10-08T07:51:10.852Z,11.81
2022-10-08T07:53:38.481Z,12.01
2022-10-08T07:56:06.677Z,12.14
2022-10-08T07:58:34.254Z,12.38
2022-10-08T08:01:03.945Z,12.63
2022-10-08T08:03:31.761Z,12.59
2022-10-08T08:06:03.328Z,12.56
2022-10-08T08:08:31.091Z,12.56
2022-10-08T08:10:58.951Z,12.44
2022-10-08T08:13:26.969Z,12.39
2022-10-08T08:15:58.595Z,12.24
2022-10-08T08:18:28.831Z,12.09
2022-10-08T08:21:00.153Z,12.08
2022-10-08T08:23:35.247Z,12.25
2022-10-08T08:26:03.293Z,12.28
2022-10-08T08:28:31.068Z,12.48
2022-10-08T08:31:08.150Z,12.65
2022-10-08T08:33:35.962Z,12.85
2022-10-08T08:36:04.040Z,13.06
2022-10-08T08:38:35.337Z,13.04
2022-10-08T08:41:12.692Z,13.07
2022-10-08T08:43:41.215Z,13.06
2022-10-08T08:46:08.815Z,13.06
2022-10-08T08:48:37.957Z,13.04
2022-10-08T08:51:05.723Z,13.11
2022-10-08T08:53:34.837Z,13.14
2022-10-08T08:56:06.030Z,13.16
2022-10-08T08:58:38.935Z,13.14
2022-10-08T09:01:15.823Z,13.24
2022-10-08T09:03:45.401Z,13.46
2022-10-08T09:06:15.018Z,13.59
2022-10-08T09:08:46.758Z,13.52
2022-10-08T09:11:16.101Z,13.50
2022-10-08T09:13:51.325Z,13.33
2022-10-08T09:16:23.878Z,13.55
2022-10-08T09:18:52.887Z,13.38
2022-10-08T09:21:21.137Z,13.33
2022-10-08T09:23:50.055Z,13.39
2022-10-08T09:26:20.889Z,13.50
2022-10-08T09:28:50.051Z,13.72
2022-10-08T09:31:29.514Z,14.08
2022-10-08T09:34:01.584Z,14.19
2022-10-08T09:36:31.066Z,14.21
2022-10-08T09:39:01.739Z,14.23
2022-10-08T09:41:30.262Z,14.39
2022-10-08T09:44:16.528Z,14.44
2022-10-08T09:46:44.386Z,14.75
2022-10-08T09:49:32.092Z,14.88
2022-10-08T09:52:02.174Z,14.97
2022-10-08T09:54:32.559Z,15.04
2022-10-08T09:57:01.119Z,15.08
2022-10-08T09:59:30.347Z,15.13
2022-10-08T10:01:58.812Z,15.28
2022-10-08T10:04:33.198Z,15.41
2022-10-08T10:07:01.112Z,15.17
2022-10-08T10:09:39.526Z,15.25
2022-10-08T10:12:14.798Z,15.10
2022-10-08T10:14:44.816Z,15.30
2022-10-08T10:17:15.878Z,15.46
2022-10-08T10:19:48.918Z,15.97
2022-10-08T10:22:20.761Z,16.04
2022-10-08T10:24:54.261Z,16.33
2022-10-08T10:27:32.464Z,16.68
2022-10-08T10:30:05.868Z,16.72
2022-10-08T10:32:38.056Z,16.84
2022-10-08T10:35:11.455Z,16.67
2022-10-08T10:37:45.604Z,16.48
2022-10-08T10:40:32.107Z,16.33
2022-10-08T10:43:07.899Z,16.30
2022-10-08T10:45:36.088Z,16.24
2022-10-08T10:48:03.943Z,16.20
2022-10-08T10:50:46.409Z,16.07
2022-10-08T10:53:19.543Z,16.04
2022-10-08T10:55:54.906Z,15.97
2022-10-08T10:58:31.926Z,15.95
2022-10-08T11:01:05.446Z,15.88
2022-10-08T11:03:39.747Z,15.97
2022-10-08T11:06:23.626Z,15.95
2022-10-08T11:08:57.634Z,16.02
2022-10-08T11:11:33.179Z,16.12
2022-10-08T11:14:09.044Z,15.97
2022-10-08T11:16:47.899Z,16.06
2022-10-08T11:19:26.748Z,16.01
2022-10-08T11:21:59.876Z,16.04
2022-10-08T11:24:40.338Z,16.10
2022-10-08T11:27:13.839Z,15.85
2022-10-08T11:29:45.447Z,15.98
2022-10-08T11:32:14.909Z,16.00
2022-10-08T11:34:47.578Z,15.76
2022-10-08T11:37:22.718Z,15.67
2022-10-08T11:39:55.010Z,15.76
2022-10-08T11:42:35.647Z,15.70
2022-10-08T11:45:32.424Z,16.11
2022-10-08T11:48:00.907Z,16.34
2022-10-08T11:50:31.255Z,16.24
2022-10-08T11:53:02.451Z,16.22
2022-10-08T11:55:31.973Z,16.37
2022-10-08T11:58:09.952Z,16.62
2022-10-08T12:00:42.861Z,16.48
2022-10-08T12:03:22.841Z,16.68
2022-10-08T12:05:53.468Z,16.48
2022-10-08T12:08:53.177Z,16.24
2022-10-08T12:11:53.979Z,16.62
2022-10-08T12:14:48.041Z,16.82
2022-10-08T12:17:16.783Z,16.83
2022-10-08T12:20:03.180Z,17.22
2022-10-08T12:23:16.421Z,17.24
2022-10-08T12:26:14.412Z,16.71
2022-10-08T12:28:50.752Z,17.02
2022-10-08T12:31:29.273Z,17.25
2022-10-08T12:34:02.748Z,17.56
2022-10-08T12:36:38.160Z,17.60
2022-10-08T12:39:15.203Z,17.74
2022-10-08T12:41:51.188Z,17.80
2022-10-08T12:44:30.575Z,17.96
2022-10-08T12:47:12.205Z,17.95
2022-10-08T12:49:46.363Z,17.75
2022-10-08T12:52:14.965Z,17.74
2022-10-08T12:54:50.726Z,17.71
2022-10-08T12:57:38.533Z,17.67
2022-10-08T13:00:22.491Z,17.65
2022-10-08T13:03:18.209Z,17.77
2022-10-08T13:06:02.417Z,17.86
2022-10-08T13:08:42.810Z,17.89
2022-10-08T13:11:23.211Z,17.98
2022-10-08T13:13:52.880Z,18.07
2022-10-08T13:16:26.157Z,18.14
2022-10-08T13:19:05.059Z,18.07
2022-10-08T13:21:39.113Z,18.11
2022-10-08T13:24:34.281Z,18.28
2022-10-08T13:33:13.528Z,18.10
2022-10-08T13:35:52.772Z,18.12
2022-10-08T13:38:23.294Z,18.21
2022-10-08T13:41:03.049Z,18.07
2022-10-08T13:43:31.603Z,18.25
2022-10-08T13:45:59.975Z,17.83
2022-10-08T13:48:27.687Z,17.88
2022-10-08T13:50:57.492Z,17.57
2022-10-08T13:53:26.748Z,17.38
2022-10-08T13:55:54.629Z,17.28
2022-10-08T13:58:22.309Z,17.11
2022-10-08T14:00:50.410Z,17.09
2022-10-08T14:03:18.599Z,16.75
2022-10-08T14:05:47.759Z,16.89
2022-10-08T14:08:19.032Z,16.96
2022-10-08T14:10:47.079Z,16.77
2022-10-08T14:13:15.908Z,16.78
2022-10-08T14:15:43.641Z,16.86
2022-10-08T14:18:11.294Z,16.92
2022-10-08T14:20:39.188Z,16.93
2022-10-08T14:23:06.910Z,16.86
2022-10-08T14:25:35.864Z,16.97
2022-10-08T14:28:03.568Z,17.04
2022-10-08T14:30:31.174Z,17.00
2022-10-08T14:32:58.780Z,17.08
2022-10-08T14:35:26.342Z,17.10
2022-10-08T14:37:53.942Z,16.98
2022-10-08T14:40:22.833Z,16.98
2022-10-08T14:42:52.107Z,16.87
2022-10-08T14:45:19.877Z,17.02
2022-10-08T14:47:47.453Z,17.08
2022-10-08T14:50:15.207Z,17.03
2022-10-08T14:52:44.594Z,17.14
2022-10-08T14:55:13.234Z,16.96
2022-10-08T14:57:40.825Z,16.88
2022-10-08T15:00:11.098Z,16.87
2022-10-08T15:02:38.685Z,17.07
2022-10-08T15:05:07.273Z,16.93
2022-10-08T15:07:34.825Z,16.98
2022-10-08T15:10:02.458Z,16.79
2022-10-08T15:12:30.155Z,16.81
2022-10-08T15:14:57.718Z,16.75
2022-10-08T15:17:26.639Z,16.53
2022-10-08T15:19:54.343Z,16.45
2022-10-08T15:22:21.864Z,16.60
2022-10-08T15:24:49.545Z,16.44
2022-10-08T15:27:20.578Z,16.40
2022-10-08T15:29:48.711Z,16.28
2022-10-08T15:32:16.615Z,16.05
2022-10-08T15:34:45.604Z,16.01
2022-10-08T15:37:14.586Z,15.99
2022-10-08T15:39:42.246Z,16.04
2022-10-08T15:42:11.980Z,15.91
2022-10-08T15:44:39.967Z,15.78
2022-10-08T15:47:11.482Z,15.79
2022-10-08T15:49:40.251Z,15.66
2022-10-08T15:52:10.650Z,15.46
2022-10-08T15:54:38.727Z,15.28
2022-10-08T15:57:06.957Z,15.29
2022-10-08T15:59:35.026Z,15.18
2022-10-08T16:02:03.104Z,15.30
2022-10-08T16:04:30.760Z,15.21
2022-10-08T16:06:58.387Z,15.16
2022-10-08T16:09:37.526Z,15.11
2022-10-08T16:12:12.507Z,14.90
2022-10-08T16:14:45.170Z,14.98
2022-10-08T16:17:27.148Z,14.84
2022-10-08T16:19:55.101Z,14.54
2022-10-08T16:22:22.718Z,14.60
2022-10-08T16:24:51.651Z,14.53
2022-10-08T16:27:19.504Z,14.46
2022-10-08T16:29:47.048Z,14.59
2022-10-08T16:32:15.938Z,14.31
2022-10-08T16:34:45.304Z,14.37
2022-10-08T16:37:13.634Z,14.10
2022-10-08T16:39:41.296Z,13.96
2022-10-08T16:42:10.313Z,13.80
2022-10-08T16:44:37.911Z,13.85
2022-10-08T16:47:11.731Z,13.68
2022-10-08T16:49:49.779Z,13.48
2022-10-08T16:52:21.010Z,13.39
2022-10-08T16:54:54.516Z,13.22
2022-10-08T16:57:24.786Z,13.16
2022-10-08T16:59:52.408Z,13.05
2022-10-08T17:02:24.967Z,12.97
2022-10-08T17:04:53.649Z,12.93
2022-10-08T17:07:21.218Z,12.86
2022-10-08T17:09:48.797Z,12.82
2022-10-08T17:12:20.964Z,12.70
2022-10-08T17:14:50.604Z,12.93
2022-10-08T17:17:18.288Z,12.80
2022-10-08T17:19:45.956Z,12.74
2022-10-08T17:22:16.269Z,12.75
2022-10-08T17:24:43.873Z,12.62
2022-10-08T17:27:13.285Z,12.58
2022-10-08T17:29:41.084Z,12.51
2022-10-08T17:32:11.476Z,12.40
2022-10-08T17:34:39.210Z,12.41
2022-10-08T17:37:07.055Z,12.56
2022-10-08T17:39:34.876Z,12.69
2022-10-08T17:42:06.811Z,12.77
2022-10-08T17:44:34.753Z,12.83
2022-10-08T17:47:02.341Z,12.75
2022-10-08T17:49:32.743Z,12.87
2022-10-08T17:52:00.384Z,12.65
2022-10-08T17:54:28.030Z,12.66
2022-10-08T17:56:55.793Z,12.74
2022-10-08T17:59:23.591Z,12.63
2022-10-08T18:01:51.575Z,12.58
2022-10-08T18:04:20.085Z,12.56
2022-10-08T18:06:49.040Z,12.46
2022-10-08T18:09:18.312Z,12.38
2022-10-08T18:11:47.558Z,12.40
2022-10-08T18:14:17.035Z,12.45
2022-10-08T18:16:48.098Z,12.28
2022-10-08T18:19:16.168Z,12.35
2022-10-08T18:21:43.798Z,12.33
2022-10-08T18:24:12.724Z,12.23
2022-10-08T18:26:40.402Z,12.20
2022-10-08T18:29:09.742Z,12.09
2022-10-08T18:31:38.666Z,12.02
2022-10-08T18:34:08.937Z,11.84
2022-10-08T18:36:37.967Z,11.91
2022-10-08T18:39:08.234Z,11.83
2022-10-08T18:41:41.273Z,11.93
2022-10-08T18:44:11.469Z,11.87
2022-10-08T18:46:40.086Z,12.06
2022-10-08T18:49:07.914Z,11.95
2022-10-08T18:51:35.660Z,12.02
2022-10-08T18:54:03.258Z,11.98
2022-10-08T18:56:38.036Z,11.98
2022-10-08T18:59:22.144Z,11.98
2022-10-08T19:02:01.722Z,11.93
2022-10-08T19:04:42.519Z,11.96
2022-10-08T19:07:10.887Z,11.91
2022-10-08T19:09:39.819Z,11.91
2022-10-08T19:12:08.063Z,11.87
2022-10-08T19:14:37.128Z,11.86
2022-10-08T19:17:04.678Z,11.86
2022-10-08T19:19:32.697Z,11.72
2022-10-08T19:22:01.792Z,11.88
2022-10-08T19:24:29.844Z,11.81
2022-10-08T19:26:58.241Z,11.73
2022-10-08T19:29:28.850Z,11.67
2022-10-08T19:31:57.875Z,11.56
2022-10-08T19:34:27.335Z,11.58
2022-10-08T19:36:55.228Z,11.50
2022-10-08T19:39:24.242Z,11.43
2022-10-08T19:41:52.057Z,11.60
2022-10-08T19:44:20.473Z,11.41
2022-10-08T19:46:48.292Z,11.43
2022-10-08T19:49:17.691Z,11.32
2022-10-08T19:51:45.524Z,11.28
2022-10-08T19:54:13.196Z,11.13
2022-10-08T19:56:41.161Z,11.07
2022-10-08T19:59:10.544Z,11.13
2022-10-08T20:01:39.135Z,11.09
2022-10-08T20:04:07.984Z,10.81
2022-10-08T20:06:39.580Z,10.79
2022-10-08T20:09:10.168Z,10.75
2022-10-08T20:11:37.725Z,10.72
2022-10-08T20:14:05.907Z,10.67
2022-10-08T20:16:35.302Z,10.71
2022-10-08T20:19:05.470Z,10.60
2022-10-08T20:21:37.338Z,10.45
2022-10-08T20:24:06.198Z,10.42
2022-10-08T20:26:34.878Z,10.47
2022-10-08T20:29:03.979Z,10.29
2022-10-08T20:31:33.298Z,10.38
2022-10-08T20:34:02.503Z,10.32
2022-10-08T20:36:31.038Z,10.19
2022-10-08T20:39:03.574Z,10.25
2022-10-08T20:41:31.518Z,10.23
2022-10-08T20:44:01.109Z,10.06
2022-10-08T20:46:28.975Z,10.02
2022-10-08T20:48:57.122Z,9.93
2022-10-08T20:51:26.519Z,10.04
2022-10-08T20:53:56.400Z,10.01
2022-10-08T20:56:26.258Z,9.93
2022-10-08T20:58:54.184Z,9.80
2022-10-08T21:01:23.504Z,9.80
2022-10-08T21:03:51.686Z,9.85
2022-10-08T21:06:20.886Z,9.88
2022-10-08T21:08:50.634Z,9.80
2022-10-08T21:11:20.656Z,9.83
2022-10-08T21:13:49.854Z,9.84
2022-10-08T21:16:19.952Z,9.79
2022-10-08T21:18:50.582Z,9.62
2022-10-08T21:21:19.032Z,9.64
2022-10-08T21:23:49.547Z,9.74
2022-10-08T21:26:18.510Z,9.59
2022-10-08T21:28:47.840Z,9.61
2022-10-08T21:31:17.549Z,9.67
2022-10-08T21:33:46.459Z,9.79
2022-10-08T21:36:16.486Z,9.81
2022-10-08T21:38:44.315Z,9.85
2022-10-08T21:41:13.673Z,9.83
2022-10-08T21:43:42.680Z,9.86
2022-10-08T21:46:11.953Z,9.84
2022-10-08T21:48:41.234Z,9.82
2022-10-08T21:51:10.454Z,9.75
2022-10-08T21:53:40.000Z,9.59
2022-10-08T21:56:09.185Z,9.57
2022-10-08T21:58:38.458Z,9.52
2022-10-08T22:01:06.718Z,9.21
2022-10-08T22:03:34.776Z,9.30
2022-10-08T22:06:05.235Z,9.16
2022-10-08T22:08:33.017Z,9.10
2022-10-08T22:11:00.795Z,9.16
2022-10-08T22:13:28.418Z,9.15
2022-10-08T22:15:57.826Z,9.20
2022-10-08T22:18:26.615Z,9.32
2022-10-08T22:20:54.612Z,9.27
2022-10-08T22:23:24.970Z,9.27
2022-10-08T22:25:53.880Z,9.27
2022-10-08T22:28:21.952Z,9.24
2022-10-08T22:30:49.937Z,9.29
2022-10-08T22:33:17.880Z,9.27
2022-10-08T22:35:45.758Z,9.06
2022-10-08T22:38:13.515Z,9.09
2022-10-08T22:40:42.589Z,9.09
2022-10-08T22:43:10.226Z,9.10
2022-10-08T22:45:38.907Z,9.02
2022-10-08T22:48:06.655Z,9.04
2022-10-08T22:50:35.318Z,8.98
2022-10-08T22:53:03.318Z,9.01
2022-10-08T22:55:31.410Z,8.96
2022-10-08T22:58:00.480Z,8.99
2022-10-08T23:00:28.219Z,8.87
2022-10-08T23:02:55.897Z,8.85
2022-10-08T23:05:23.515Z,8.91
2022-10-08T23:07:55.245Z,8.82
2022-10-08T23:10:22.944Z,8.78
2022-10-08T23:12:51.082Z,8.67
2022-10-08T23:15:20.168Z,8.65
2022-10-08T23:17:47.835Z,8.62
2022-10-08T23:20:15.639Z,8.61
2022-10-08T23:22:43.153Z,8.68
2022-10-08T23:25:11.000Z,8.71
2022-10-08T23:27:38.563Z,8.71
2022-10-08T23:30:20.741Z,8.88
2022-10-08T23:32:55.908Z,8.64
2022-10-08T23:35:23.518Z,8.66
2022-10-08T23:37:51.029Z,8.60
2022-10-08T23:40:18.594Z,8.55
2022-10-08T23:42:46.493Z,8.50
2022-10-08T23:45:14.479Z,8.50
2022-10-08T23:47:42.037Z,8.52
2022-10-08T23:50:11.364Z,8.42
2022-10-08T23:52:38.915Z,8.52
2022-10-08T23:55:07.257Z,8.48
2022-10-08T23:57:34.855Z,8.43
